createdAt,value
2022-09-10T00:06:55.597Z,100673.38
2022-09-10T00:13:57.811Z,100666.88
2022-09-10T00:20:59.643Z,100676.00
2022-09-10T00:28:02.073Z,100662.78
2022-09-10T00:35:03.906Z,100664.34
2022-09-10T00:42:05.533Z,100655.69
2022-09-10T00:49:17.734Z,100655.53
2022-09-10T00:56:19.382Z,100651.22
2022-09-10T01:03:25.324Z,100654.94
2022-09-10T01:10:32.527Z,100658.06
2022-09-10T01:17:55.867Z,100652.88
2022-09-10T01:25:06.974Z,100655.00
2022-09-10T01:32:15.404Z,100660.47
2022-09-10T01:39:22.027Z,100655.69
2022-09-10T01:46:37.948Z,100656.53
2022-09-10T01:53:43.453Z,100660.03
2022-09-10T02:00:49.390Z,100653.47
2022-09-10T02:07:53.352Z,100651.28
2022-09-10T02:14:56.291Z,100661.03
2022-09-10T02:22:18.121Z,100659.31
2022-09-10T02:29:19.667Z,100663.41
2022-09-10T02:36:21.554Z,100663.44
2022-09-10T02:43:23.307Z,100670.59
2022-09-10T02:50:25.137Z,100677.78
2022-09-10T02:57:26.943Z,100673.94
2022-09-10T03:04:28.782Z,100678.66
2022-09-10T03:11:31.191Z,100668.41
2022-09-10T03:18:35.218Z,100670.88
2022-09-10T03:25:36.987Z,100673.75
2022-09-10T03:32:39.564Z,100664.09
2022-09-10T03:39:43.449Z,100652.97
2022-09-10T03:46:47.952Z,100664.25
2022-09-10T03:53:52.103Z,100658.69
2022-09-10T04:00:55.705Z,100666.53
2022-09-10T04:08:02.569Z,100666.06
2022-09-10T04:15:08.050Z,100659.88
2022-09-10T04:22:10.117Z,100665.66
2022-09-10T04:29:14.424Z,100674.31
2022-09-10T04:36:17.139Z,100680.84
2022-09-10T04:43:19.276Z,100679.00
2022-09-10T04:50:21.890Z,100670.22
2022-09-10T04:57:45.921Z,100670.59
2022-09-10T05:04:47.647Z,100671.72
2022-09-10T05:11:49.923Z,100675.41
2022-09-10T05:18:54.356Z,100668.88
2022-09-10T05:25:56.899Z,100685.88
2022-09-10T05:33:01.709Z,100680.47
2022-09-10T05:40:06.934Z,100687.09
2022-09-10T05:47:08.883Z,100678.47
2022-09-10T05:54:11.506Z,100687.00
2022-09-10T06:01:14.262Z,100690.84
2022-09-10T06:08:18.763Z,100697.53
2022-09-10T06:15:21.079Z,100689.88
2022-09-10T06:22:23.956Z,100702.75
2022-09-10T06:29:26.805Z,100712.88
2022-09-10T06:36:29.234Z,100712.91
2022-09-10T06:43:36.599Z,100712.78
2022-09-10T06:50:57.498Z,100711.63
2022-09-10T06:58:05.010Z,100712.16
2022-09-10T07:05:08.247Z,100706.47
2022-09-10T07:12:11.818Z,100711.50
2022-09-10T07:19:17.258Z,100710.53
2022-09-10T07:26:20.369Z,100706.31
2022-09-10T07:33:24.852Z,100698.03
2022-09-10T07:40:27.816Z,100699.94
2022-09-10T07:47:29.573Z,100706.59
2022-09-10T07:54:32.070Z,100702.59
2022-09-10T08:01:35.101Z,100707.91
2022-09-10T08:08:38.514Z,100702.66
2022-09-10T08:15:43.811Z,100705.56
2022-09-10T08:22:48.911Z,100708.59
2022-09-10T08:29:50.706Z,100715.31
2022-09-10T08:36:54.334Z,100720.16
2022-09-10T08:44:03.298Z,100720.47
2022-09-10T08:51:15.902Z,100718.38
2022-09-10T08:58:19.020Z,100710.59
2022-09-10T09:05:23.035Z,100710.78
2022-09-10T09:12:41.954Z,100705.84
2022-09-10T09:20:06.496Z,100710.22
2022-09-10T09:27:17.386Z,100711.75
2022-09-10T09:34:45.711Z,100702.31
2022-09-10T09:42:02.533Z,100699.19
2022-09-10T09:49:04.795Z,100697.13
2022-09-10T09:56:15.382Z,100704.25
2022-09-10T10:03:20.765Z,100691.22
2022-09-10T10:10:26.465Z,100691.44
2022-09-10T10:17:30.195Z,100676.63
2022-09-10T10:24:32.886Z,100677.59
2022-09-10T10:31:42.160Z,100681.72
2022-09-10T10:39:26.079Z,100673.91
2022-09-10T10:46:48.635Z,100675.25
2022-09-10T10:54:24.531Z,100681.84
2022-09-10T11:01:30.038Z,100666.31
2022-09-10T11:08:42.990Z,100655.06
2022-09-10T11:15:46.464Z,100658.13
2022-09-10T11:23:02.006Z,100678.25
2022-09-10T11:30:16.220Z,100670.13
2022-09-10T11:37:45.261Z,100666.09
2022-09-10T11:44:56.074Z,100655.75
2022-09-10T11:51:57.623Z,100647.31
2022-09-10T11:59:35.302Z,100641.38
2022-09-10T12:07:07.450Z,100641.00
2022-09-10T12:14:15.103Z,100641.47
2022-09-10T12:21:38.047Z,100629.50
2022-09-10T12:28:42.513Z,100618.31
2022-09-10T12:35:46.455Z,100625.19
2022-09-10T12:42:48.060Z,100626.34
2022-09-10T12:49:57.159Z,100616.59
2022-09-10T12:57:03.847Z,100615.25
2022-09-10T13:04:05.452Z,100602.78
2022-09-10T13:11:18.674Z,100608.81
2022-09-10T13:18:27.537Z,100594.50
2022-09-10T13:25:42.627Z,100589.66
2022-09-10T13:32:48.221Z,100593.00
2022-09-10T13:40:20.205Z,100592.38
2022-09-10T13:47:33.382Z,100589.78
2022-09-10T13:54:39.467Z,100581.97
2022-09-10T14:01:52.057Z,100581.00
2022-09-10T14:08:57.990Z,100586.69
2022-09-10T14:16:00.083Z,100590.78
2022-09-10T14:23:06.283Z,100581.44
2022-09-10T14:30:23.181Z,100584.84
2022-09-10T14:37:36.861Z,100592.00
2022-09-10T14:44:42.041Z,100604.13
2022-09-10T14:51:43.725Z,100590.97
2022-09-10T14:58:45.938Z,100596.81
2022-09-10T15:05:47.630Z,100603.19
2022-09-10T15:12:51.985Z,100616.56
2022-09-10T15:19:55.188Z,100618.56
2022-09-10T15:26:56.840Z,100609.94
2022-09-10T15:33:58.431Z,100598.66
2022-09-10T15:41:16.894Z,100596.44
2022-09-10T15:48:18.472Z,100599.50
2022-09-10T15:55:20.139Z,100603.91
2022-09-10T16:02:21.758Z,100596.75
2022-09-10T16:09:23.493Z,100603.25
2022-09-10T16:16:26.727Z,100619.94
2022-09-10T16:23:28.268Z,100612.63
2022-09-10T16:30:29.909Z,100611.66
2022-09-10T16:37:33.309Z,100625.31
2022-09-10T16:44:34.949Z,100634.69
2022-09-10T16:51:36.570Z,100653.69
2022-09-10T16:58:38.786Z,100662.28
2022-09-10T17:05:40.490Z,100660.59
2022-09-10T17:12:43.719Z,100646.66
2022-09-10T17:19:45.334Z,100648.50
2022-09-10T17:26:46.975Z,100651.56
2022-09-10T17:33:48.999Z,100658.75
2022-09-10T17:40:55.352Z,100674.13
2022-09-10T17:47:57.320Z,100686.38
2022-09-10T17:54:58.885Z,100695.59
2022-09-10T18:02:01.683Z,100702.06
2022-09-10T18:09:03.566Z,100700.34
2022-09-10T18:16:06.296Z,100708.94
2022-09-10T18:23:08.218Z,100718.28
2022-09-10T18:30:10.431Z,100716.50
2022-09-10T18:37:13.500Z,100721.50
2022-09-10T18:44:16.850Z,100719.47
2022-09-10T18:51:20.393Z,100724.81
2022-09-10T18:58:21.946Z,100725.81
2022-09-10T19:05:23.535Z,100714.69
2022-09-10T19:12:25.097Z,100709.09
2022-09-10T19:19:28.418Z,100700.97
2022-09-10T19:26:32.461Z,100708.44
2022-09-10T19:33:36.045Z,100694.34
2022-09-10T19:40:37.756Z,100689.50
2022-09-10T19:47:40.200Z,100696.34
2022-09-10T19:54:41.863Z,100700.75
2022-09-10T20:01:45.779Z,100699.06
2022-09-10T20:08:50.229Z,100704.25
2022-09-10T20:15:51.819Z,100709.59
2022-09-10T20:23:00.201Z,100729.94
2022-09-10T20:30:02.625Z,100725.22
2022-09-10T20:37:04.266Z,100726.09
2022-09-10T20:44:06.093Z,100714.47
2022-09-10T20:51:07.728Z,100721.09
2022-09-10T20:58:09.273Z,100719.94
2022-09-10T21:05:10.925Z,100719.78
2022-09-10T21:12:13.085Z,100720.63
2022-09-10T21:19:15.512Z,100723.66
2022-09-10T21:26:19.751Z,100730.13
2022-09-10T21:33:21.605Z,100730.25
2022-09-10T21:40:24.151Z,100737.72
2022-09-10T21:47:27.089Z,100738.84
2022-09-10T21:54:28.649Z,100737.13
2022-09-10T22:01:30.876Z,100750.47
2022-09-10T22:08:33.216Z,100749.72
2022-09-10T22:15:41.753Z,100751.63
2022-09-10T22:22:44.362Z,100751.63
2022-09-10T22:29:45.899Z,100756.03
2022-09-10T22:36:48.361Z,100754.59
2022-09-10T22:43:50.354Z,100758.88
2022-09-10T22:50:51.906Z,100761.41
2022-09-10T22:57:53.846Z,100758.63
2022-09-10T23:04:55.707Z,100770.06
2022-09-10T23:11:57.328Z,100779.66
2022-09-10T23:19:00.170Z,100782.63
2022-09-10T23:26:08.889Z,100786.78
2022-09-10T23:33:10.463Z,100787.16
2022-09-10T23:40:13.733Z,100780.50
2022-09-10T23:47:15.340Z,100782.16
2022-09-10T23:54:16.981Z,100781.81
